.
WxDataArchive / Data Records for 2010-10-16
2010-10-15 October 2010 2010-10-17

Data Records for Saturday, 16 October 2010

Time	Temp	Chill	HIndex	Humid	Dewpt	 Wind 	HiWind	WindDir	Rain 	Barom 
-----	----	-----	------	-----	-----	------	------	-------	-----	----- 
00:00	46.1	46.1	46.1	77	39.3	0	0	---	0.00	30.131 
00:05	45.7	45.7	45.7	77	38.9	0	0	---	0.00	30.131 
00:10	45.4	45.4	45.4	78	38.9	0	0	---	0.00	30.131 
00:15	45.1	45.1	45.1	79	39.0	0	0	---	0.00	30.130 
00:20	44.8	44.8	44.8	80	39.0	0	0	---	0.00	30.130 
00:25	44.6	44.6	44.6	81	39.1	0	0	---	0.00	30.130 
00:30	44.5	44.5	44.5	81	39.0	0	0	---	0.00	30.130 
00:35	44.5	44.5	44.5	82	39.4	0	0	---	0.00	30.130 
00:40	44.3	44.3	44.3	82	39.2	0	0	---	0.00	30.130 
00:45	44.2	44.2	44.2	83	39.4	0	0	---	0.00	30.127 
00:50	44.2	44.2	44.2	83	39.4	0	0	---	0.00	30.127 
00:55	44.1	44.1	44.1	83	39.3	0	0	---	0.00	30.127 
01:00	43.9	43.9	43.9	84	39.4	0	0	---	0.00	30.122 
01:05	43.9	43.9	43.9	84	39.4	0	1	315	0.00	30.122 
01:10	43.8	43.8	43.8	84	39.3	0	0	---	0.00	30.122 
01:15	43.6	43.6	43.6	84	39.1	0	0	---	0.00	30.117 
01:20	43.3	43.3	43.3	84	38.8	0	0	---	0.00	30.117 
01:25	43.2	43.2	43.2	85	39.0	0	0	---	0.00	30.117 
01:30	42.9	42.9	42.9	85	38.7	0	0	---	0.00	30.116 
01:35	42.8	42.8	42.8	85	38.6	0	0	---	0.00	30.116 
01:40	42.6	42.6	42.6	85	38.4	0	0	---	0.00	30.116 
01:45	42.3	42.3	42.3	86	38.4	0	0	---	0.00	30.117 
01:50	42.2	42.2	42.2	87	38.6	0	0	---	0.00	30.117 
01:55	42.2	42.2	42.2	87	38.6	0	0	---	0.00	30.117 
02:00	42.2	42.2	42.2	88	38.9	0	1	315	0.00	30.116 
02:05	42.2	42.2	42.2	88	38.9	0	0	---	0.00	30.116 
02:10	42.2	42.2	42.2	88	38.9	0	0	---	0.00	30.116 
02:15	42.2	42.2	42.2	88	38.9	0	0	---	0.00	30.116 
02:20	42.1	42.1	42.1	88	38.8	0	0	---	0.00	30.116 
02:25	41.9	41.9	41.9	88	38.6	0	0	---	0.00	30.116 
02:30	41.6	41.6	41.6	88	38.3	0	0	---	0.00	30.115 
02:35	41.3	41.3	41.3	88	38.0	0	0	---	0.00	30.115 
02:40	41.1	41.1	41.1	89	38.1	0	0	---	0.00	30.115 
02:45	40.9	40.9	40.9	89	37.9	0	0	---	0.00	30.119 
02:50	40.9	40.9	40.9	89	37.9	0	0	---	0.00	30.119 
02:55	40.8	40.8	40.8	89	37.8	0	0	---	0.00	30.119 
03:00	40.6	40.6	40.6	90	37.9	0	0	---	0.00	30.118 
03:05	40.5	40.5	40.5	90	37.8	0	0	---	0.00	30.118 
03:10	40.5	40.5	40.5	90	37.8	0	0	---	0.00	30.118 
03:15	40.3	40.3	40.3	90	37.6	0	0	---	0.00	30.117 
03:20	40.3	40.3	40.3	90	37.6	0	0	---	0.00	30.117 
03:25	40.3	40.3	40.3	91	37.9	0	0	---	0.00	30.117 
03:30	40.3	40.3	40.3	91	37.9	0	0	---	0.00	30.116 
03:35	40.2	40.2	40.2	91	37.8	0	0	---	0.00	30.116 
03:40	40.1	40.1	40.1	91	37.7	0	0	---	0.00	30.116 
03:45	39.9	39.9	39.9	91	37.5	0	0	---	0.00	30.111 
03:50	39.8	39.8	39.8	91	37.4	0	0	---	0.00	30.111 
03:55	39.6	39.6	39.6	91	37.2	0	0	---	0.00	30.111 
04:00	39.5	39.5	39.5	91	37.1	0	0	---	0.00	30.108 
04:05	39.3	39.3	39.3	92	37.2	0	0	---	0.00	30.108 
04:10	39.2	39.2	39.2	92	37.1	0	0	---	0.00	30.108 
04:15	39.1	39.1	39.1	92	37.0	0	0	---	0.00	30.107 
04:20	38.9	38.9	38.9	92	36.8	0	0	---	0.00	30.107 
04:25	38.8	38.8	38.8	92	36.7	0	0	---	0.00	30.107 
04:30	38.6	38.6	38.6	92	36.5	0	0	---	0.00	30.109 
04:35	38.6	38.6	38.6	92	36.5	0	0	---	0.00	30.109 
04:40	38.6	38.6	38.6	92	36.5	0	0	---	0.00	30.109 
04:45	38.8	38.8	38.8	92	36.7	0	0	---	0.00	30.115 
04:50	39.2	39.2	39.2	93	37.3	0	0	---	0.00	30.115 
04:55	39.6	39.6	39.6	93	37.7	0	0	---	0.00	30.115 
05:00	40.1	40.1	40.1	94	38.5	0	0	---	0.00	30.116 
05:05	40.2	40.2	40.2	94	38.6	0	0	---	0.00	30.116 
05:10	40.3	40.3	40.3	94	38.7	0	1	315	0.00	30.116 
05:15	40.3	40.3	40.3	94	38.7	0	0	---	0.00	30.122 
05:20	40.5	40.5	40.5	94	38.9	0	0	---	0.00	30.122 
05:25	40.3	40.3	40.3	94	38.7	0	0	---	0.00	30.122 
05:30	40.3	40.3	40.3	94	38.7	0	0	---	0.00	30.130 
05:35	40.5	40.5	40.5	94	38.9	0	1	315	0.00	30.130 
05:40	40.5	40.5	40.5	94	38.9	0	0	---	0.00	30.130 
05:45	40.5	40.5	40.5	94	38.9	0	0	---	0.00	30.131 
05:50	40.5	40.5	40.5	94	38.9	0	0	---	0.00	30.131 
05:55	40.2	40.2	40.2	94	38.6	0	0	---	0.00	30.131 
06:00	40.1	40.1	40.1	94	38.5	0	0	---	0.00	30.131 
06:05	39.9	39.9	39.9	94	38.3	0	0	---	0.00	30.131 
06:10	39.9	39.9	39.9	94	38.3	0	0	---	0.00	30.131 
06:15	39.9	39.9	39.9	94	38.3	0	0	---	0.00	30.136 
06:20	39.9	39.9	39.9	94	38.3	0	0	---	0.00	30.136 
06:25	39.9	39.9	39.9	94	38.3	0	0	---	0.00	30.136 
06:30	39.9	39.9	39.9	94	38.3	0	0	---	0.00	30.139 
06:35	39.8	39.8	39.8	94	38.2	0	0	---	0.00	30.139 
06:40	39.8	39.8	39.8	94	38.2	0	0	---	0.00	30.139 
06:45	39.8	39.8	39.8	94	38.2	0	0	---	0.00	30.143 
06:50	39.8	39.8	39.8	94	38.2	0	0	---	0.00	30.143 
06:55	39.8	39.8	39.8	94	38.2	0	0	---	0.00	30.143 
07:00	39.6	39.6	39.6	94	38.0	0	0	---	0.00	30.150 
07:05	39.6	39.6	39.6	94	38.0	0	0	---	0.00	30.150 
07:10	39.5	39.5	39.5	94	37.9	0	0	---	0.00	30.150 
07:15	39.3	39.3	39.3	94	37.7	0	0	---	0.00	30.159 
07:20	39.2	39.2	39.2	94	37.6	0	0	---	0.00	30.159 
07:25	39.1	39.1	39.1	94	37.5	0	0	---	0.00	30.159 
07:30	39.1	39.1	39.1	94	37.5	0	0	---	0.00	30.160 
07:35	39.1	39.1	39.1	94	37.5	0	0	---	0.00	30.160 
07:40	38.9	38.9	38.9	94	37.3	0	0	---	0.00	30.160 
07:45	38.9	38.9	38.9	94	37.3	0	0	---	0.00	30.164 
07:50	38.8	38.8	38.8	94	37.2	0	0	---	0.00	30.164 
07:55	38.5	38.5	38.5	94	36.9	0	0	---	0.00	30.164 
08:00	38.3	38.3	38.3	94	36.7	0	0	---	0.00	30.168 
08:05	38.2	38.2	38.2	94	36.6	0	0	---	0.00	30.168 
08:10	38.0	38.0	38.0	94	36.4	0	0	---	0.00	30.168 
08:15	38.0	38.0	38.0	95	36.7	0	0	---	0.00	30.177 
08:20	38.3	38.3	38.3	95	37.0	0	0	---	0.00	30.177 
08:25	38.9	38.9	38.9	95	37.6	0	0	---	0.00	30.177 
08:30	39.3	39.3	39.3	95	38.0	0	0	---	0.00	30.180 
08:35	39.5	39.5	39.5	95	38.2	0	0	---	0.00	30.180 
08:40	39.8	39.8	39.8	95	38.5	0	0	---	0.00	30.180 
08:45	40.2	40.2	40.2	95	38.9	0	0	---	0.00	30.188 
08:50	40.5	40.5	40.5	95	39.2	0	0	---	0.00	30.188 
08:55	40.8	40.8	40.8	96	39.7	0	0	---	0.00	30.188 
09:00	41.2	41.2	41.2	96	40.1	0	0	---	0.00	30.188 
09:05	41.6	41.6	41.6	96	40.5	0	0	---	0.00	30.188 
09:10	42.1	42.1	42.1	96	41.0	0	0	---	0.00	30.188 
09:15	42.5	42.5	42.5	96	41.4	0	0	---	0.00	30.189 
09:20	43.1	43.1	43.1	96	42.0	0	1	315	0.00	30.189 
09:25	43.5	43.5	43.5	96	42.4	0	0	---	0.00	30.189 
09:30	43.9	43.9	43.9	96	42.8	0	0	---	0.00	30.188 
09:35	44.3	44.3	44.3	96	43.2	0	1	315	0.00	30.188 
09:40	44.8	44.8	44.8	96	43.7	0	1	315	0.00	30.188 
09:45	45.2	45.2	45.2	96	44.1	0	0	---	0.00	30.183 
09:50	45.7	45.7	45.7	96	44.6	0	1	315	0.00	30.183 
09:55	46.1	46.1	46.1	96	45.0	0	0	---	0.00	30.183 
10:00	46.5	46.5	46.5	96	45.4	0	1	315	0.00	30.176 
10:05	47.3	47.3	47.3	95	45.9	0	1	315	0.00	30.176 
10:10	48.0	48.0	48.0	95	46.6	0	1	315	0.00	30.176 
10:15	49.1	49.1	49.1	95	47.7	0	1	315	0.00	30.179 
10:20	49.8	49.8	49.8	92	47.6	0	2	315	0.00	30.179 
10:25	50.2	50.2	50.2	88	46.8	0	1	315	0.00	30.179 
10:30	50.8	50.8	50.8	84	46.1	1	2	315	0.00	30.179 
10:35	51.6	51.6	51.6	82	46.3	0	2	315	0.00	30.179 
10:40	52.2	52.2	52.2	79	45.9	1	2	315	0.00	30.179 
10:45	52.6	52.6	52.6	75	44.9	1	2	315	0.00	30.176 
10:50	53.3	53.3	53.3	75	45.6	0	2	315	0.00	30.176 
10:55	53.6	53.6	53.6	73	45.2	1	3	315	0.00	30.176 
11:00	54.1	54.1	54.1	72	45.3	1	2	315	0.00	30.172 
11:05	54.5	54.5	54.5	70	44.9	1	2	315	0.00	30.172 
11:10	55.0	55.0	55.0	70	45.4	0	2	315	0.00	30.172 
11:15	55.4	55.4	55.4	69	45.4	1	3	315	0.00	30.172 
11:20	55.9	55.9	55.9	68	45.5	0	2	315	0.00	30.172 
11:25	56.5	56.5	56.5	67	45.7	0	3	225	0.00	30.172 
11:30	56.9	56.9	56.9	65	45.3	1	3	292	0.00	30.172 
11:35	57.2	57.2	57.2	64	45.1	1	3	292	0.00	30.172 
11:40	57.2	57.2	57.2	63	44.7	1	3	292	0.00	30.172 
11:45	57.3	57.3	57.3	63	44.8	1	3	292	0.00	30.173 
11:50	57.6	57.6	57.6	62	44.7	1	4	292	0.00	30.173 
11:55	58.0	58.0	58.0	62	45.1	1	4	292	0.00	30.173 
12:00	58.3	58.3	58.3	62	45.3	1	4	292	0.00	30.164 
12:05	58.4	58.4	58.4	60	44.6	1	5	270	0.00	30.164 
12:10	58.7	58.7	58.7	59	44.4	1	3	270	0.00	30.164 
12:15	59.2	59.2	59.2	57	44.0	1	4	270	0.00	30.164 
12:20	59.5	59.5	59.5	57	44.3	1	4	248	0.00	30.164 
12:25	59.6	59.6	59.6	56	43.9	2	4	248	0.00	30.164 
12:30	59.8	59.8	59.8	55	43.6	2	3	248	0.00	30.160 
12:35	60.1	60.1	60.1	56	44.3	2	4	248	0.00	30.160 
12:40	60.2	60.2	60.2	54	43.5	1	3	248	0.00	30.160 
12:45	60.5	60.5	60.5	54	43.8	1	4	248	0.00	30.151 
12:50	60.7	60.7	60.7	52	43.0	1	5	248	0.00	30.151 
12:55	60.7	60.7	60.7	51	42.5	2	5	248	0.00	30.151 
13:00	60.9	60.9	60.9	53	43.7	1	4	338	0.00	30.145 
13:05	60.9	60.9	60.9	51	42.6	1	4	315	0.00	30.145 
13:10	60.9	60.9	60.9	51	42.6	1	4	248	0.00	30.145 
13:15	61.2	61.2	61.2	51	42.9	1	4	270	0.00	30.143 
13:20	61.5	61.5	61.5	50	42.7	2	5	270	0.00	30.143 
13:25	61.8	61.8	61.8	50	43.0	1	3	292	0.00	30.143 
13:30	61.8	61.8	61.8	50	43.0	1	4	315	0.00	30.129 
13:35	62.1	62.1	62.1	49	42.7	1	3	292	0.00	30.129 
13:40	62.4	62.4	62.4	48	42.4	1	4	248	0.00	30.129 
13:45	62.7	62.7	62.7	47	42.2	1	3	270	0.00	30.119 
13:50	62.9	62.9	62.9	46	41.8	1	5	270	0.00	30.119 
13:55	62.6	62.6	62.6	46	41.5	2	4	270	0.00	30.119 
14:00	62.6	62.6	62.6	48	42.6	2	5	248	0.00	30.112 
14:05	62.7	62.7	62.7	47	42.2	1	4	248	0.00	30.112 
14:10	63.1	63.1	63.1	48	43.1	1	5	270	0.00	30.112 
14:15	63.2	63.2	63.2	47	42.6	1	4	270	0.00	30.111 
14:20	63.5	63.5	63.5	46	42.3	1	5	248	0.00	30.111 
14:25	63.9	63.9	63.9	45	42.1	1	5	248	0.00	30.111 
14:30	63.7	63.7	63.7	46	42.5	1	4	270	0.00	30.105 
14:35	63.7	63.7	63.7	46	42.5	1	4	270	0.00	30.105 
14:40	63.9	63.9	63.9	45	42.1	1	5	248	0.00	30.105 
14:45	64.0	64.0	64.0	45	42.2	1	5	248	0.00	30.090 
14:50	64.2	64.2	64.2	44	41.8	1	4	225	0.00	30.090 
14:55	64.3	64.3	64.3	43	41.3	1	5	248	0.00	30.090 
15:00	64.3	64.3	64.3	42	40.7	2	5	248	0.00	30.083 
15:05	64.5	64.5	64.5	43	41.5	1	5	248	0.00	30.083 
15:10	64.7	64.7	64.7	42	41.1	1	5	248	0.00	30.083 
15:15	64.8	64.8	64.8	41	40.5	1	5	248	0.00	30.080 
15:20	65.0	65.0	65.0	43	42.0	1	5	248	0.00	30.080 
15:25	65.0	65.0	65.0	42	41.3	1	3	248	0.00	30.080 
15:30	65.0	65.0	65.0	41	40.7	2	6	270	0.00	30.077 
15:35	65.2	65.2	65.2	40	40.3	1	3	270	0.00	30.077 
15:40	65.3	65.3	65.3	42	41.6	1	3	248	0.00	30.077 
15:45	65.6	65.6	65.6	38	39.3	2	5	248	0.00	30.060 
15:50	65.6	65.6	65.6	39	40.0	1	4	248	0.00	30.060 
15:55	66.0	66.0	66.0	38	39.7	1	4	248	0.00	30.060 
16:00	66.3	66.3	66.3	37	39.2	1	5	248	0.00	30.062 
16:05	66.1	66.1	66.1	37	39.1	2	6	248	0.00	30.062 
16:10	66.1	66.1	66.1	38	39.7	1	2	270	0.00	30.062 
16:15	66.3	66.3	66.3	36	38.5	2	7	248	0.00	30.063 
16:20	66.1	66.1	66.1	36	38.4	2	7	292	0.00	30.063 
16:25	66.3	66.3	66.3	36	38.5	1	4	248	0.00	30.063 
16:30	66.1	66.1	66.1	36	38.4	1	4	248	0.00	30.049 
16:35	66.0	66.0	66.0	37	39.0	2	5	248	0.00	30.049 
16:40	65.8	65.8	65.8	37	38.8	2	5	248	0.00	30.049 
16:45	66.0	66.0	66.0	37	39.0	0	2	248	0.00	30.047 
16:50	66.0	66.0	66.0	37	39.0	1	3	248	0.00	30.047 
16:55	66.0	66.0	66.0	37	39.0	1	3	248	0.00	30.047 
17:00	65.8	65.8	65.8	37	38.8	1	7	248	0.00	30.046 
17:05	65.8	65.8	65.8	36	38.1	1	4	248	0.00	30.046 
17:10	65.8	65.8	65.8	37	38.8	1	5	248	0.00	30.046 
17:15	65.6	65.6	65.6	35	37.2	2	4	248	0.00	30.040 
17:20	65.6	65.6	65.6	36	37.9	1	4	270	0.00	30.040 
17:25	65.8	65.8	65.8	36	38.1	1	4	248	0.00	30.040 
17:30	65.8	65.8	65.8	36	38.1	1	3	248	0.00	30.036 
17:35	65.6	65.6	65.6	35	37.2	2	4	248	0.00	30.036 
17:40	65.6	65.6	65.6	35	37.2	1	3	248	0.00	30.036 
17:45	65.5	65.5	65.5	36	37.8	1	4	248	0.00	30.036 
17:50	65.5	65.5	65.5	36	37.8	1	5	248	0.00	30.036 
17:55	65.5	65.5	65.5	36	37.8	1	3	248	0.00	30.036 
18:00	65.3	65.3	65.3	36	37.7	1	4	248	0.00	30.041 
18:05	65.2	65.2	65.2	36	37.6	1	4	225	0.00	30.041 
18:10	65.0	65.0	65.0	35	36.7	1	5	248	0.00	30.041 
18:15	64.8	64.8	64.8	35	36.5	1	4	248	0.00	30.036 
18:20	64.7	64.7	64.7	35	36.4	1	5	248	0.00	30.036 
18:25	64.5	64.5	64.5	36	36.9	0	2	248	0.00	30.036 
18:30	64.3	64.3	64.3	37	37.5	0	1	248	0.00	30.034 
18:35	64.0	64.0	64.0	37	37.2	0	1	248	0.00	30.034 
18:40	63.7	63.7	63.7	38	37.6	0	1	248	0.00	30.034 
18:45	63.4	63.4	63.4	39	38.0	0	3	248	0.00	30.016 
18:50	63.1	63.1	63.1	39	37.7	1	6	248	0.00	30.016 
18:55	63.1	63.1	63.1	38	37.1	0	1	248	0.00	30.016 
19:00	62.9	62.9	62.9	38	36.9	0	2	248	0.00	30.021 
19:05	62.9	62.9	62.9	40	38.2	0	2	248	0.00	30.021 
19:10	62.7	62.7	62.7	39	37.4	0	2	248	0.00	30.021 
19:15	62.6	62.6	62.6	39	37.3	0	1	248	0.00	30.018 
19:20	62.4	62.4	62.4	39	37.1	0	1	248	0.00	30.018 
19:25	62.3	62.3	62.3	39	37.0	0	1	248	0.00	30.018 
19:30	62.1	62.1	62.1	39	36.8	0	2	248	0.00	30.022 
19:35	62.0	62.0	62.0	40	37.4	0	1	248	0.00	30.022 
19:40	62.0	62.0	62.0	40	37.4	0	1	248	0.00	30.022 
19:45	61.8	61.8	61.8	40	37.2	0	0	---	0.00	30.024 
19:50	61.8	61.8	61.8	40	37.2	0	1	248	0.00	30.024 
19:55	61.6	61.6	61.6	40	37.0	0	1	248	0.00	30.024 
20:00	61.5	61.5	61.5	40	37.0	0	1	248	0.00	30.024 
20:05	61.3	61.3	61.3	41	37.4	0	1	248	0.00	30.024 
20:10	61.0	61.0	61.0	42	37.7	0	0	---	0.00	30.024 
20:15	60.7	60.7	60.7	42	37.5	0	1	248	0.00	30.021 
20:20	60.4	60.4	60.4	42	37.2	0	1	248	0.00	30.021 
20:25	60.1	60.1	60.1	43	37.5	0	0	---	0.00	30.021 
20:30	59.8	59.8	59.8	43	37.3	0	0	---	0.00	30.022 
20:35	59.5	59.5	59.5	44	37.6	0	0	---	0.00	30.022 
20:40	59.2	59.2	59.2	45	37.9	0	1	248	0.00	30.022 
20:45	58.9	58.9	58.9	45	37.6	0	1	248	0.00	30.022 
20:50	58.6	58.6	58.6	45	37.3	0	1	248	0.00	30.022 
20:55	58.6	58.6	58.6	45	37.3	0	1	248	0.00	30.022 
21:00	58.6	58.6	58.6	46	37.9	0	1	248	0.00	30.021 
21:05	58.6	58.6	58.6	46	37.9	0	4	248	0.00	30.021 
21:10	58.6	58.6	58.6	46	37.9	0	1	248	0.00	30.021 
21:15	58.4	58.4	58.4	46	37.7	0	1	248	0.00	30.018 
21:20	58.3	58.3	58.3	47	38.2	0	1	248	0.00	30.018 
21:25	58.1	58.1	58.1	47	38.0	0	1	248	0.00	30.018 
21:30	58.1	58.1	58.1	47	38.0	0	1	248	0.00	30.026 
21:35	58.1	58.1	58.1	47	38.0	0	1	248	0.00	30.026 
21:40	58.0	58.0	58.0	47	37.9	0	1	248	0.00	30.026 
21:45	57.8	57.8	57.8	47	37.7	0	1	248	0.00	30.027 
21:50	57.6	57.6	57.6	48	38.1	0	1	248	0.00	30.027 
21:55	57.5	57.5	57.5	48	38.0	0	1	248	0.00	30.027 
22:00	57.2	57.2	57.2	49	38.2	0	1	248	0.00	30.031 
22:05	57.0	57.0	57.0	49	38.0	0	1	248	0.00	30.031 
22:10	56.7	56.7	56.7	50	38.3	0	1	248	0.00	30.031 
22:15	56.5	56.5	56.5	50	38.1	0	0	---	0.00	30.025 
22:20	56.2	56.2	56.2	51	38.3	0	0	---	0.00	30.025 
22:25	55.9	55.9	55.9	51	38.0	0	0	---	0.00	30.025 
22:30	55.4	55.4	55.4	52	38.1	0	0	---	0.00	30.028 
22:35	55.1	55.1	55.1	53	38.3	0	0	---	0.00	30.028 
22:40	55.0	55.0	55.0	53	38.2	0	1	248	0.00	30.028 
22:45	54.7	54.7	54.7	54	38.4	0	1	248	0.00	30.028 
22:50	54.5	54.5	54.5	54	38.2	0	1	248	0.00	30.028 
22:55	54.4	54.4	54.4	54	38.1	0	1	248	0.00	30.028 
23:00	54.4	54.4	54.4	54	38.1	0	1	248	0.00	30.024 
23:05	54.4	54.4	54.4	54	38.1	0	1	248	0.00	30.024 
23:10	54.2	54.2	54.2	55	38.4	0	2	248	0.00	30.024 
23:15	54.2	54.2	54.2	55	38.4	0	1	248	0.00	30.019 
23:20	54.2	54.2	54.2	55	38.4	0	2	248	0.00	30.019 
23:25	54.2	54.2	54.2	55	38.4	0	1	248	0.00	30.019 
23:30	54.2	54.2	54.2	55	38.4	0	1	248	0.00	30.014 
23:35	54.2	54.2	54.2	54	37.9	0	2	248	0.00	30.014 
23:40	54.4	54.4	54.4	54	38.1	0	2	248	0.00	30.014 
23:45	54.5	54.5	54.5	54	38.2	0	2	248	0.00	30.012 
23:50	54.5	54.5	54.5	54	38.2	0	2	248	0.00	30.012 
23:55	54.7	54.7	54.7	54	38.4	0	2	248	0.00	30.012 

CoCoRaHS
IN-AL-39
A2 Web Hosting
Creative Commons License
GoDaddy
search engine by freefind advanced

loaded 2018-11-20 02:27:50 • last modified 2010-11-18 10:43:29
Privacy PolicyDisclaimer
• wx.awcolley.com is powered by PmWiki v.2002016 •
• all content (unless otherwise noted) © 2018 A W Colley